TimeEST,TemperatureF,Dew PointF,Humidity,Sea Level PressureIn,VisibilityMPH,Wind Direction,Wind SpeedMPH,Gust SpeedMPH,PrecipitationIn,Events,Conditions,WindDirDegrees,DateUTC
12:17 AM,21.9,17.1,82,29.83,3.0,NNW,9.2,-,0.00,Snow,Light Snow,330,2013-03-02 05:17:00
12:30 AM,21.9,17.1,82,29.83,3.0,NNW,6.9,-,0.00,Snow,Light Snow,330,2013-03-02 05:30:00
12:53 AM,21.9,16.0,78,29.90,4.0,NNW,10.4,-,0.00,Snow,Light Snow,340,2013-03-02 05:53:00
1:24 AM,21.9,16.0,78,29.83,5.0,North,8.1,17.3,0.00,Snow,Light Snow,350,2013-03-02 06:24:00
1:53 AM,21.9,17.1,82,29.90,4.0,NNW,5.8,-,0.00,Snow,Light Snow,340,2013-03-02 06:53:00
2:23 AM,21.0,16.0,81,29.82,7.0,NNW,10.4,-,0.00,Snow,Light Snow,330,2013-03-02 07:23:00
2:53 AM,21.0,15.1,78,29.89,10.0,NNW,10.4,-,0.00,,Overcast,340,2013-03-02 07:53:00
3:21 AM,21.0,15.1,78,29.82,6.0,NNW,6.9,-,0.00,Snow,Light Snow,330,2013-03-02 08:21:00
3:53 AM,19.9,15.1,81,29.89,5.0,West,6.9,-,0.00,Snow,Light Snow,280,2013-03-02 08:53:00
4:53 AM,19.9,16.0,85,29.89,4.0,WNW,5.8,-,0.00,Snow,Light Snow,300,2013-03-02 09:53:00
5:20 AM,19.9,16.0,85,29.81,4.0,NW,5.8,-,0.00,Snow,Light Snow,310,2013-03-02 10:20:00
5:30 AM,19.9,16.0,85,29.81,5.0,NW,4.6,-,0.00,Snow,Light Snow,310,2013-03-02 10:30:00
5:53 AM,19.9,16.0,85,29.89,6.0,NW,8.1,-,0.00,Snow,Light Snow,310,2013-03-02 10:53:00
6:50 AM,19.4,15.8,86,29.81,7.0,WNW,6.9,-,0.00,Snow,Light Snow,300,2013-03-02 11:50:00
7:53 AM,19.9,14.0,78,29.91,2.0,NNW,10.4,-,0.00,Snow,Light Snow,330,2013-03-02 12:53:00
8:43 AM,19.9,14.0,78,29.82,3.0,NW,6.9,-,0.00,Snow,Light Snow,320,2013-03-02 13:43:00
8:53 AM,19.9,14.0,78,29.90,3.0,NW,10.4,-,0.00,Snow,Light Snow,320,2013-03-02 13:53:00
9:53 AM,19.9,14.0,78,29.90,2.5,NNW,8.1,-,0.00,Snow,Light Snow,340,2013-03-02 14:53:00
10:00 AM,19.9,14.0,78,29.82,4.0,NNW,10.4,-,0.00,Snow,Light Snow,330,2013-03-02 15:00:00
10:53 AM,21.0,12.9,71,29.90,4.0,North,8.1,-,0.00,Snow,Light Snow,10,2013-03-02 15:53:00
11:15 AM,21.0,12.9,71,29.82,6.0,NW,6.9,-,0.00,,Haze,320,2013-03-02 16:15:00
11:51 AM,21.2,14.0,74,29.81,7.0,NNW,9.2,-,0.00,,Overcast,330,2013-03-02 16:51:00
11:53 AM,21.0,14.0,74,29.89,7.0,NNW,6.9,-,0.00,,Overcast,340,2013-03-02 16:53:00
12:37 PM,21.9,15.1,75,29.80,9.0,NW,9.2,-,N/A,,Overcast,310,2013-03-02 17:37:00
12:53 PM,23.0,15.1,72,29.87,9.0,NW,10.4,-,N/A,,Overcast,320,2013-03-02 17:53:00
1:53 PM,24.1,15.1,69,29.85,10.0,West,8.1,-,N/A,,Overcast,280,2013-03-02 18:53:00
2:53 PM,23.0,16.0,74,29.86,8.0,WNW,12.7,-,N/A,,Overcast,300,2013-03-02 19:53:00
3:25 PM,23.0,16.0,74,29.78,6.0,NW,10.4,-,0.00,Snow,Light Snow,310,2013-03-02 20:25:00
3:53 PM,23.0,15.1,72,29.86,9.0,NW,11.5,-,0.00,,Overcast,310,2013-03-02 20:53:00
4:27 PM,21.9,15.1,75,29.78,2.5,NW,13.8,-,0.00,Snow,Light Snow,320,2013-03-02 21:27:00
4:53 PM,21.0,15.1,78,29.86,2.0,NW,13.8,-,0.00,Snow,Light Snow,310,2013-03-02 21:53:00
5:02 PM,21.0,15.1,78,29.78,1.8,NW,15.0,-,0.00,Snow,Light Snow,310,2013-03-02 22:02:00
5:11 PM,21.0,15.1,78,29.78,2.0,NW,13.8,-,0.00,Snow,Light Snow,310,2013-03-02 22:11:00
5:42 PM,21.0,14.0,74,29.79,4.0,NW,11.5,-,0.00,Snow,Light Snow,310,2013-03-02 22:42:00
5:53 PM,19.9,14.0,78,29.88,5.0,NNW,13.8,-,0.00,Snow,Light Snow,330,2013-03-02 22:53:00
6:53 PM,19.9,12.9,74,29.89,7.0,NW,11.5,-,0.00,Snow,Light Snow,320,2013-03-02 23:53:00
7:53 PM,19.9,14.0,78,29.89,7.0,WNW,8.1,-,0.00,,Overcast,300,2013-03-03 00:53:00
8:46 PM,19.9,14.0,78,29.80,7.0,WNW,8.1,-,0.00,,Overcast,300,2013-03-03 01:46:00
8:53 PM,19.9,14.0,78,29.89,7.0,WNW,6.9,-,0.00,,Overcast,290,2013-03-03 01:53:00
9:53 PM,19.9,15.1,81,29.88,3.0,West,5.8,-,0.00,Snow,Light Snow,280,2013-03-03 02:53:00
10:05 PM,19.9,15.1,81,29.80,2.5,West,6.9,-,0.00,Snow,Light Snow,280,2013-03-03 03:05:00
10:25 PM,19.9,15.1,81,29.79,4.0,West,8.1,-,0.00,Snow,Light Snow,280,2013-03-03 03:25:00
10:53 PM,19.9,15.1,81,29.86,4.0,WNW,11.5,-,0.00,Snow,Light Snow,290,2013-03-03 03:53:00
11:53 PM,19.9,16.0,85,29.85,4.0,NW,10.4,-,0.00,Snow,Light Snow,310,2013-03-03 04:53:00